FHY111 LTAJ-LIPZ
Flight info
| Callsign | FHY111 |
|---|---|
| Flight time | N/A |
| Altitude | 38000 |
| Route | POGEN UA17 YAVRU UA4 ERKAL UL615 VADEN Y520 LUKOV Q8 DOLAP DCT NANER DCT UZVEZ DCT KOREX DCT LABIN DCT BASOG |
| Aircraft | A320/M-SDE3FGHIRWY/LB1 |
Departure
| Time | 2026-05-06 13:27 |
|---|---|
| Airport | Gaziantep Oğuzeli International Airport (LTAJ) |
Arrival
| Time | N/A |
|---|---|
| Airport | Venice Marco Polo Airport (LIPZ) |
| Time | Latitude | Longitude | Altitude | Speed | Heading |
|---|---|---|---|---|---|
| 2026-05-06 13:06 | 36.94515 | 37.47723 | 2300 ft | 0 kts | 195° |
| 2026-05-06 13:19 | 36.94535 | 37.47729 | 2300 ft | 4 kts | 195° |
| 2026-05-06 13:19 | 36.94556 | 37.47736 | 2300 ft | 4 kts | 192° |
| 2026-05-06 13:20 | 36.94582 | 37.47739 | 2299 ft | 4 kts | 163° |
| 2026-05-06 13:20 | 36.94597 | 37.47725 | 2297 ft | 1 kts | 105° |
| 2026-05-06 13:21 | 36.94597 | 37.47728 | 2293 ft | 1 kts | 104° |
| 2026-05-06 13:22 | 36.94590 | 37.47764 | 2298 ft | 5 kts | 96° |
| 2026-05-06 13:22 | 36.94608 | 37.47791 | 2297 ft | 7 kts | 28° |
| 2026-05-06 13:22 | 36.94635 | 37.47832 | 2290 ft | 5 kts | 88° |
| 2026-05-06 13:22 | 36.94626 | 37.47882 | 2293 ft | 11 kts | 106° |
| 2026-05-06 13:23 | 36.94605 | 37.47981 | 2287 ft | 12 kts | 105° |
| 2026-05-06 13:23 | 36.94585 | 37.48077 | 2300 ft | 14 kts | 105° |
| 2026-05-06 13:23 | 36.94558 | 37.48201 | 2294 ft | 15 kts | 105° |
| 2026-05-06 13:23 | 36.94527 | 37.48348 | 2296 ft | 19 kts | 105° |
| 2026-05-06 13:24 | 36.94494 | 37.48503 | 2287 ft | 18 kts | 104° |
| 2026-05-06 13:24 | 36.94462 | 37.48652 | 2287 ft | 17 kts | 105° |
| 2026-05-06 13:24 | 36.94432 | 37.48795 | 2289 ft | 16 kts | 105° |
| 2026-05-06 13:24 | 36.94403 | 37.48927 | 2287 ft | 15 kts | 105° |
| 2026-05-06 13:25 | 36.94373 | 37.49068 | 2287 ft | 17 kts | 105° |
| 2026-05-06 13:25 | 36.94341 | 37.49210 | 2293 ft | 17 kts | 105° |
| 2026-05-06 13:25 | 36.94312 | 37.49349 | 2299 ft | 16 kts | 98° |
| 2026-05-06 13:25 | 36.94390 | 37.49424 | 2282 ft | 18 kts | 13° |
| 2026-05-06 13:26 | 36.94478 | 37.49374 | 2279 ft | 14 kts | 293° |
| 2026-05-06 13:26 | 36.94485 | 37.49346 | 2279 ft | 0 kts | 286° |
| 2026-05-06 13:26 | 36.94485 | 37.49345 | 2279 ft | 1 kts | 286° |
| 2026-05-06 13:27 | 36.94530 | 37.49137 | 2277 ft | 64 kts | 285° |
| 2026-05-06 13:27 | 36.94714 | 37.48282 | 2281 ft | 138 kts | 285° |
| 2026-05-06 13:27 | 36.95011 | 37.46896 | 2407 ft | 182 kts | 284° |
| 2026-05-06 13:27 | 36.95327 | 37.45313 | 3043 ft | 192 kts | 283° |
| 2026-05-06 13:28 | 36.95634 | 37.43624 | 3804 ft | 206 kts | 281° |
| 2026-05-06 13:28 | 36.95958 | 37.41823 | 4460 ft | 214 kts | 280° |
| 2026-05-06 13:28 | 36.96289 | 37.40008 | 5155 ft | 215 kts | 281° |
| 2026-05-06 13:28 | 36.96625 | 37.38183 | 5832 ft | 216 kts | 282° |
| 2026-05-06 13:29 | 36.96966 | 37.36355 | 6522 ft | 215 kts | 281° |
| 2026-05-06 13:29 | 36.97305 | 37.34538 | 7187 ft | 214 kts | 281° |
| 2026-05-06 13:29 | 36.97649 | 37.32705 | 7737 ft | 224 kts | 281° |
| 2026-05-06 13:29 | 36.98018 | 37.30706 | 8017 ft | 248 kts | 282° |
| 2026-05-06 13:30 | 36.98416 | 37.28511 | 8367 ft | 267 kts | 281° |
| 2026-05-06 13:30 | 36.98834 | 37.26200 | 8965 ft | 276 kts | 282° |
| 2026-05-06 13:30 | 36.99263 | 37.23840 | 9688 ft | 280 kts | 282° |
| 2026-05-06 13:30 | 36.99713 | 37.21459 | 10339 ft | 288 kts | 285° |
| 2026-05-06 13:31 | 37.00480 | 37.19037 | 10528 ft | 312 kts | 297° |
| 2026-05-06 13:31 | 37.01714 | 37.16686 | 10671 ft | 336 kts | 308° |
| 2026-05-06 13:31 | 37.03392 | 37.14542 | 11051 ft | 349 kts | 315° |
| 2026-05-06 13:31 | 37.05159 | 37.12442 | 11724 ft | 352 kts | 315° |
| 2026-05-06 13:32 | 37.06912 | 37.10333 | 12386 ft | 355 kts | 314° |
| 2026-05-06 13:32 | 37.08711 | 37.08149 | 13088 ft | 357 kts | 314° |
| 2026-05-06 13:32 | 37.10493 | 37.05976 | 13750 ft | 360 kts | 314° |
| 2026-05-06 13:32 | 37.12357 | 37.03902 | 14272 ft | 366 kts | 321° |
| 2026-05-06 13:33 | 37.14426 | 37.02024 | 14862 ft | 368 kts | 322° |
| 2026-05-06 13:33 | 37.16516 | 37.00136 | 15442 ft | 371 kts | 322° |
| 2026-05-06 13:33 | 37.18615 | 36.98235 | 16029 ft | 373 kts | 322° |
| 2026-05-06 13:33 | 37.20726 | 36.96324 | 16621 ft | 376 kts | 322° |
| 2026-05-06 13:34 | 37.22852 | 36.94397 | 17227 ft | 378 kts | 322° |
| 2026-05-06 13:34 | 37.24988 | 36.92463 | 17814 ft | 380 kts | 321° |
| 2026-05-06 13:34 | 37.26966 | 36.90257 | 18370 ft | 379 kts | 306° |
| 2026-05-06 13:34 | 37.28346 | 36.87449 | 18856 ft | 379 kts | 296° |
| 2026-05-06 13:35 | 37.29569 | 36.84505 | 19373 ft | 381 kts | 296° |
| 2026-05-06 13:35 | 37.30786 | 36.81539 | 19875 ft | 382 kts | 296° |
| 2026-05-06 13:35 | 37.32003 | 36.78561 | 20381 ft | 384 kts | 296° |
| 2026-05-06 13:35 | 37.33221 | 36.75570 | 20852 ft | 386 kts | 296° |
| 2026-05-06 13:36 | 37.34443 | 36.72560 | 21316 ft | 387 kts | 296° |
| 2026-05-06 13:36 | 37.35660 | 36.69534 | 21770 ft | 389 kts | 296° |
| 2026-05-06 13:36 | 37.36876 | 36.66494 | 22213 ft | 390 kts | 296° |
| 2026-05-06 13:36 | 37.38097 | 36.63438 | 22671 ft | 392 kts | 296° |
| 2026-05-06 13:37 | 37.39305 | 36.60416 | 23082 ft | 394 kts | 296° |
| 2026-05-06 13:37 | 37.40541 | 36.57322 | 23447 ft | 396 kts | 296° |
| 2026-05-06 13:37 | 37.41779 | 36.54218 | 23805 ft | 398 kts | 296° |
| 2026-05-06 13:37 | 37.43196 | 36.51223 | 24151 ft | 400 kts | 307° |
| 2026-05-06 13:38 | 37.45099 | 36.48660 | 24462 ft | 402 kts | 313° |
| 2026-05-06 13:38 | 37.47073 | 36.46155 | 24781 ft | 405 kts | 313° |
| 2026-05-06 13:38 | 37.49072 | 36.43637 | 25170 ft | 405 kts | 313° |
| 2026-05-06 13:38 | 37.51064 | 36.41132 | 25552 ft | 405 kts | 313° |
| 2026-05-06 13:39 | 37.53057 | 36.38615 | 25873 ft | 406 kts | 313° |
| 2026-05-06 13:39 | 37.55053 | 36.36086 | 26172 ft | 408 kts | 313° |
| 2026-05-06 13:39 | 37.57059 | 36.33539 | 26461 ft | 410 kts | 313° |
| 2026-05-06 13:39 | 37.59067 | 36.30983 | 26737 ft | 411 kts | 313° |
| 2026-05-06 13:40 | 37.61084 | 36.28412 | 27006 ft | 413 kts | 312° |
| 2026-05-06 13:40 | 37.63107 | 36.25830 | 27289 ft | 414 kts | 313° |
| 2026-05-06 13:40 | 37.65142 | 36.23234 | 27560 ft | 415 kts | 313° |
| 2026-05-06 13:40 | 37.67174 | 36.20640 | 27816 ft | 417 kts | 313° |
| 2026-05-06 13:41 | 37.69214 | 36.18037 | 28062 ft | 418 kts | 313° |
| 2026-05-06 13:41 | 37.71237 | 36.15455 | 28268 ft | 419 kts | 313° |
| 2026-05-06 13:41 | 37.73289 | 36.12834 | 28497 ft | 420 kts | 313° |
| 2026-05-06 13:41 | 37.75346 | 36.10206 | 28723 ft | 421 kts | 313° |
| 2026-05-06 13:42 | 37.77410 | 36.07566 | 28936 ft | 422 kts | 313° |
| 2026-05-06 13:42 | 37.79471 | 36.04925 | 29221 ft | 422 kts | 313° |
| 2026-05-06 13:42 | 37.81525 | 36.02290 | 29534 ft | 421 kts | 313° |
| 2026-05-06 13:42 | 37.83580 | 35.99653 | 29835 ft | 420 kts | 313° |
| 2026-05-06 13:43 | 37.85620 | 35.97030 | 30251 ft | 416 kts | 313° |
| 2026-05-06 13:43 | 37.87643 | 35.94426 | 30479 ft | 415 kts | 312° |
| 2026-05-06 13:43 | 37.89667 | 35.91815 | 30693 ft | 415 kts | 312° |
| 2026-05-06 13:43 | 37.91686 | 35.89212 | 30924 ft | 414 kts | 312° |
| 2026-05-06 13:44 | 37.93021 | 35.87489 | 31074 ft | 414 kts | 312° |
| 2026-05-06 13:44 | 37.95042 | 35.84882 | 31314 ft | 414 kts | 312° |
| 2026-05-06 13:44 | 37.97054 | 35.82286 | 31509 ft | 413 kts | 312° |
| 2026-05-06 13:44 | 37.99071 | 35.79678 | 31684 ft | 414 kts | 312° |
| 2026-05-06 13:45 | 38.01078 | 35.77080 | 31904 ft | 414 kts | 312° |
| 2026-05-06 13:45 | 38.05103 | 35.71868 | 32382 ft | 413 kts | 312° |
| 2026-05-06 13:45 | 38.07109 | 35.69265 | 32629 ft | 413 kts | 312° |
| 2026-05-06 13:46 | 38.09114 | 35.66666 | 32871 ft | 412 kts | 312° |
| 2026-05-06 13:46 | 38.11118 | 35.64063 | 33102 ft | 412 kts | 312° |
| 2026-05-06 13:46 | 38.13121 | 35.61456 | 33333 ft | 412 kts | 312° |
| 2026-05-06 13:46 | 38.15121 | 35.58852 | 33563 ft | 411 kts | 312° |
| 2026-05-06 13:47 | 38.17120 | 35.56248 | 33795 ft | 411 kts | 311° |
| 2026-05-06 13:47 | 38.19118 | 35.53643 | 34030 ft | 411 kts | 312° |
| 2026-05-06 13:47 | 38.21112 | 35.51042 | 34190 ft | 412 kts | 311° |
| 2026-05-06 13:47 | 38.23114 | 35.48427 | 34355 ft | 412 kts | 312° |
| 2026-05-06 13:48 | 38.25118 | 35.45809 | 34552 ft | 412 kts | 312° |
| 2026-05-06 13:48 | 38.27115 | 35.43199 | 34727 ft | 413 kts | 312° |
| 2026-05-06 13:48 | 38.29118 | 35.40581 | 34884 ft | 413 kts | 312° |
| 2026-05-06 13:48 | 38.31100 | 35.37989 | 35030 ft | 414 kts | 312° |
| 2026-05-06 13:49 | 38.33108 | 35.35359 | 35186 ft | 414 kts | 312° |
| 2026-05-06 13:49 | 38.35117 | 35.32722 | 35336 ft | 415 kts | 312° |
| 2026-05-06 13:49 | 38.37129 | 35.30075 | 35475 ft | 415 kts | 312° |
| 2026-05-06 13:49 | 38.39137 | 35.27431 | 35609 ft | 416 kts | 312° |
| 2026-05-06 13:50 | 38.41153 | 35.24779 | 35741 ft | 416 kts | 312° |
| 2026-05-06 13:50 | 38.43164 | 35.22133 | 35886 ft | 416 kts | 312° |
| 2026-05-06 13:50 | 38.45181 | 35.19475 | 36018 ft | 416 kts | 312° |
| 2026-05-06 13:50 | 38.47196 | 35.16816 | 36142 ft | 417 kts | 312° |
| 2026-05-06 13:51 | 38.49213 | 35.14160 | 36271 ft | 417 kts | 312° |
| 2026-05-06 13:51 | 38.51238 | 35.11496 | 36396 ft | 417 kts | 312° |
| 2026-05-06 13:51 | 38.53259 | 35.08826 | 36522 ft | 417 kts | 312° |
| 2026-05-06 13:51 | 38.55268 | 35.06159 | 36665 ft | 418 kts | 312° |
| 2026-05-06 13:52 | 38.57285 | 35.03479 | 36795 ft | 418 kts | 312° |
| 2026-05-06 13:52 | 38.59301 | 35.00800 | 36923 ft | 418 kts | 312° |
| 2026-05-06 13:52 | 38.61319 | 34.98119 | 37050 ft | 418 kts | 312° |
| 2026-05-06 13:52 | 38.63329 | 34.95447 | 37180 ft | 418 kts | 312° |
| 2026-05-06 13:53 | 38.65319 | 34.92802 | 37311 ft | 418 kts | 312° |
| 2026-05-06 13:53 | 38.67333 | 34.90125 | 37440 ft | 417 kts | 312° |
| 2026-05-06 13:53 | 38.69349 | 34.87452 | 37572 ft | 417 kts | 312° |
| 2026-05-06 13:53 | 38.71362 | 34.84782 | 37702 ft | 417 kts | 312° |
| 2026-05-06 13:54 | 38.73368 | 34.82113 | 37848 ft | 416 kts | 312° |
| 2026-05-06 13:54 | 38.75374 | 34.79436 | 38005 ft | 415 kts | 312° |
| 2026-05-06 13:54 | 38.79376 | 34.74084 | 38111 ft | 418 kts | 312° |
| 2026-05-06 13:55 | 38.83416 | 34.68664 | 38113 ft | 422 kts | 312° |
| 2026-05-06 13:55 | 38.87495 | 34.63186 | 38112 ft | 426 kts | 312° |
| 2026-05-06 13:56 | 38.91614 | 34.57658 | 38111 ft | 430 kts | 312° |
| 2026-05-06 13:56 | 38.95765 | 34.52076 | 38112 ft | 433 kts | 312° |
| 2026-05-06 13:57 | 38.99936 | 34.46456 | 38108 ft | 435 kts | 312° |
| 2026-05-06 13:57 | 39.04119 | 34.40807 | 38112 ft | 436 kts | 312° |
| 2026-05-06 13:58 | 39.08275 | 34.35181 | 38112 ft | 437 kts | 312° |
| 2026-05-06 13:58 | 39.12469 | 34.29494 | 38096 ft | 438 kts | 312° |
| 2026-05-06 13:59 | 39.16524 | 34.23643 | 38090 ft | 438 kts | 309° |
| 2026-05-06 13:59 | 39.20398 | 34.17559 | 38093 ft | 438 kts | 308° |
| 2026-05-06 14:00 | 39.24252 | 34.11452 | 38099 ft | 439 kts | 309° |
| 2026-05-06 14:00 | 39.28154 | 34.05393 | 38107 ft | 439 kts | 309° |
| 2026-05-06 14:01 | 39.32078 | 33.99352 | 38102 ft | 439 kts | 309° |
| 2026-05-06 14:01 | 39.35999 | 33.93285 | 38101 ft | 439 kts | 309° |
| 2026-05-06 14:02 | 39.39879 | 33.87254 | 38101 ft | 439 kts | 309° |
| 2026-05-06 14:02 | 39.43783 | 33.81174 | 38103 ft | 439 kts | 309° |
| 2026-05-06 14:03 | 39.47675 | 33.75080 | 38104 ft | 439 kts | 309° |
| 2026-05-06 14:03 | 39.51499 | 33.68923 | 38107 ft | 439 kts | 308° |
| 2026-05-06 14:04 | 39.55301 | 33.62727 | 38102 ft | 439 kts | 308° |
| 2026-05-06 14:04 | 39.59114 | 33.56551 | 38105 ft | 439 kts | 309° |
| 2026-05-06 14:05 | 39.63013 | 33.50453 | 38103 ft | 438 kts | 310° |
| 2026-05-06 14:05 | 39.66941 | 33.44390 | 38099 ft | 438 kts | 309° |
| 2026-05-06 14:06 | 39.70820 | 33.38346 | 38103 ft | 438 kts | 309° |
| 2026-05-06 14:06 | 39.74696 | 33.32243 | 38102 ft | 438 kts | 309° |
| 2026-05-06 14:07 | 39.78565 | 33.26126 | 38096 ft | 438 kts | 309° |
| 2026-05-06 14:07 | 39.82444 | 33.20016 | 38096 ft | 438 kts | 309° |
| 2026-05-06 14:08 | 39.86314 | 33.13899 | 38096 ft | 438 kts | 309° |
| 2026-05-06 14:08 | 39.90183 | 33.07768 | 38096 ft | 438 kts | 309° |
| 2026-05-06 14:09 | 39.94057 | 33.01630 | 38095 ft | 438 kts | 309° |
| 2026-05-06 14:09 | 39.97929 | 32.95483 | 38098 ft | 438 kts | 309° |
| 2026-05-06 14:10 | 40.01767 | 32.89374 | 38100 ft | 438 kts | 309° |
| 2026-05-06 14:10 | 40.05620 | 32.83221 | 38087 ft | 437 kts | 309° |
| 2026-05-06 14:11 | 40.09346 | 32.76943 | 38079 ft | 438 kts | 306° |
| 2026-05-06 14:11 | 40.12793 | 32.70383 | 38083 ft | 438 kts | 304° |
| 2026-05-06 14:12 | 40.16182 | 32.63756 | 38077 ft | 438 kts | 304° |
| 2026-05-06 14:12 | 40.19619 | 32.57174 | 38074 ft | 437 kts | 305° |
| 2026-05-06 14:13 | 40.23092 | 32.50644 | 38074 ft | 437 kts | 305° |
| 2026-05-06 14:13 | 40.26566 | 32.44105 | 38070 ft | 437 kts | 305° |
| 2026-05-06 14:14 | 40.30021 | 32.37538 | 38073 ft | 437 kts | 305° |
| 2026-05-06 14:14 | 40.33453 | 32.30976 | 38070 ft | 436 kts | 305° |
| 2026-05-06 14:15 | 40.36889 | 32.24410 | 38068 ft | 437 kts | 305° |
| 2026-05-06 14:15 | 40.40328 | 32.17840 | 38066 ft | 437 kts | 305° |
| 2026-05-06 14:16 | 40.43762 | 32.11252 | 38068 ft | 437 kts | 305° |
| 2026-05-06 14:16 | 40.47190 | 32.04645 | 38070 ft | 438 kts | 305° |
| 2026-05-06 14:17 | 40.50619 | 31.98031 | 38071 ft | 438 kts | 305° |
| 2026-05-06 14:17 | 40.54041 | 31.91412 | 38077 ft | 438 kts | 305° |
| 2026-05-06 14:18 | 40.57433 | 31.84750 | 38080 ft | 439 kts | 301° |
| 2026-05-06 14:18 | 40.59716 | 31.77286 | 38086 ft | 441 kts | 290° |
| 2026-05-06 14:19 | 40.61616 | 31.69601 | 38085 ft | 442 kts | 290° |
| 2026-05-06 14:19 | 40.63505 | 31.61958 | 38082 ft | 442 kts | 290° |
| 2026-05-06 14:20 | 40.65404 | 31.54254 | 38089 ft | 442 kts | 290° |
| 2026-05-06 14:20 | 40.67317 | 31.46492 | 38097 ft | 443 kts | 290° |
| 2026-05-06 14:21 | 40.69201 | 31.38819 | 38087 ft | 443 kts | 290° |
| 2026-05-06 14:21 | 40.71084 | 31.31093 | 38095 ft | 443 kts | 290° |
| 2026-05-06 14:22 | 40.72962 | 31.23350 | 38105 ft | 443 kts | 290° |
| 2026-05-06 14:22 | 40.74834 | 31.15604 | 38109 ft | 443 kts | 290° |
| 2026-05-06 14:23 | 40.76707 | 31.07852 | 38089 ft | 443 kts | 290° |
| 2026-05-06 14:23 | 40.78573 | 31.00117 | 38099 ft | 443 kts | 290° |
| 2026-05-06 14:24 | 40.80435 | 30.92365 | 38109 ft | 443 kts | 289° |
| 2026-05-06 14:24 | 40.82284 | 30.84610 | 38112 ft | 443 kts | 290° |
| 2026-05-06 14:25 | 40.84133 | 30.76853 | 38106 ft | 443 kts | 289° |
| 2026-05-06 14:25 | 40.85976 | 30.69089 | 38108 ft | 443 kts | 289° |
| 2026-05-06 14:26 | 40.87671 | 30.61264 | 38105 ft | 444 kts | 286° |
| 2026-05-06 14:26 | 40.89051 | 30.53309 | 38102 ft | 444 kts | 284° |
| 2026-05-06 14:27 | 40.90147 | 30.46670 | 38096 ft | 444 kts | 285° |
| 2026-05-06 14:27 | 40.91747 | 30.37415 | 38101 ft | 444 kts | 285° |
| 2026-05-06 14:28 | 40.93167 | 30.29468 | 38099 ft | 444 kts | 285° |
| 2026-05-06 14:28 | 40.94345 | 30.22860 | 38099 ft | 444 kts | 285° |
| 2026-05-06 14:29 | 40.95739 | 30.14901 | 38094 ft | 444 kts | 285° |
| 2026-05-06 14:29 | 40.97117 | 30.06940 | 38099 ft | 444 kts | 285° |
| 2026-05-06 14:30 | 40.98499 | 29.98959 | 38102 ft | 444 kts | 285° |
| 2026-05-06 14:30 | 40.99871 | 29.90978 | 38104 ft | 444 kts | 285° |
| 2026-05-06 14:31 | 41.01229 | 29.82996 | 38093 ft | 444 kts | 285° |
| 2026-05-06 14:31 | 41.02572 | 29.75060 | 38094 ft | 444 kts | 285° |
| 2026-05-06 14:32 | 41.03906 | 29.67070 | 38098 ft | 444 kts | 285° |
| 2026-05-06 14:32 | 41.05249 | 29.59064 | 38101 ft | 444 kts | 285° |
| 2026-05-06 14:33 | 41.06597 | 29.51079 | 38094 ft | 444 kts | 285° |
| 2026-05-06 14:33 | 41.07932 | 29.43081 | 38100 ft | 444 kts | 285° |
| 2026-05-06 14:34 | 41.09262 | 29.35074 | 38104 ft | 444 kts | 285° |
| 2026-05-06 14:34 | 41.10589 | 29.27079 | 38104 ft | 444 kts | 285° |
| 2026-05-06 14:35 | 41.11915 | 29.19091 | 38099 ft | 443 kts | 285° |
| 2026-05-06 14:35 | 41.14074 | 29.11606 | 38105 ft | 436 kts | 303° |
| 2026-05-06 14:36 | 41.17410 | 29.04909 | 38104 ft | 435 kts | 305° |
| 2026-05-06 14:36 | 41.20766 | 28.98209 | 38098 ft | 435 kts | 305° |
| 2026-05-06 14:37 | 41.24107 | 28.91515 | 38095 ft | 435 kts | 305° |
| 2026-05-06 14:37 | 41.27449 | 28.84808 | 38108 ft | 434 kts | 305° |
| 2026-05-06 14:38 | 41.30779 | 28.78100 | 38113 ft | 434 kts | 305° |
| 2026-05-06 14:38 | 41.34109 | 28.71395 | 38097 ft | 434 kts | 305° |
| 2026-05-06 14:39 | 41.37430 | 28.64707 | 38108 ft | 433 kts | 305° |
| 2026-05-06 14:39 | 41.40741 | 28.58011 | 38119 ft | 432 kts | 305° |
| 2026-05-06 14:40 | 41.44035 | 28.51324 | 38120 ft | 432 kts | 305° |
| 2026-05-06 14:40 | 41.47326 | 28.44613 | 38118 ft | 431 kts | 305° |
| 2026-05-06 14:41 | 41.50606 | 28.37916 | 38122 ft | 431 kts | 305° |
| 2026-05-06 14:41 | 41.53866 | 28.31264 | 38114 ft | 431 kts | 305° |
| 2026-05-06 14:42 | 41.57140 | 28.24570 | 38118 ft | 430 kts | 305° |
| 2026-05-06 14:42 | 41.60411 | 28.17870 | 38109 ft | 430 kts | 305° |
| 2026-05-06 14:43 | 41.63675 | 28.11165 | 38113 ft | 430 kts | 305° |
| 2026-05-06 14:43 | 41.66936 | 28.04457 | 38115 ft | 430 kts | 305° |
| 2026-05-06 14:44 | 41.70193 | 27.97738 | 38108 ft | 430 kts | 304° |
| 2026-05-06 14:45 | 41.75067 | 27.87635 | 38103 ft | 430 kts | 304° |
| 2026-05-06 14:45 | 41.78316 | 27.80904 | 38100 ft | 430 kts | 304° |
| 2026-05-06 14:46 | 41.81557 | 27.74160 | 38099 ft | 430 kts | 304° |
| 2026-05-06 14:46 | 41.84792 | 27.67405 | 38082 ft | 430 kts | 304° |
| 2026-05-06 14:47 | 41.88020 | 27.60654 | 38082 ft | 430 kts | 304° |
| 2026-05-06 14:47 | 41.91250 | 27.53897 | 38083 ft | 430 kts | 304° |
| 2026-05-06 14:48 | 41.94478 | 27.47131 | 38063 ft | 430 kts | 304° |
| 2026-05-06 14:48 | 41.97692 | 27.40365 | 38069 ft | 429 kts | 304° |
| 2026-05-06 14:49 | 42.00901 | 27.33594 | 38085 ft | 430 kts | 304° |
| 2026-05-06 14:49 | 42.04110 | 27.26821 | 38074 ft | 430 kts | 304° |
| 2026-05-06 14:50 | 42.07188 | 27.19917 | 38056 ft | 431 kts | 298° |
| 2026-05-06 14:50 | 42.09806 | 27.12644 | 38067 ft | 431 kts | 298° |
| 2026-05-06 14:51 | 42.12425 | 27.05384 | 38066 ft | 431 kts | 298° |
| 2026-05-06 14:51 | 42.15047 | 26.98120 | 38064 ft | 431 kts | 298° |
| 2026-05-06 14:52 | 42.17645 | 26.90903 | 38052 ft | 431 kts | 298° |
| 2026-05-06 14:52 | 42.20270 | 26.83585 | 38062 ft | 430 kts | 298° |
| 2026-05-06 14:53 | 42.22861 | 26.76324 | 38064 ft | 430 kts | 298° |
| 2026-05-06 14:53 | 42.25450 | 26.69047 | 38057 ft | 430 kts | 298° |
| 2026-05-06 14:54 | 42.28019 | 26.61821 | 38038 ft | 429 kts | 298° |
| 2026-05-06 14:54 | 42.30593 | 26.54554 | 38043 ft | 429 kts | 298° |
| 2026-05-06 14:55 | 42.33162 | 26.47282 | 38051 ft | 429 kts | 298° |
| 2026-05-06 14:55 | 42.35732 | 26.40003 | 38051 ft | 429 kts | 298° |
| 2026-05-06 14:56 | 42.38293 | 26.32715 | 38047 ft | 428 kts | 298° |
| 2026-05-06 14:56 | 42.40844 | 26.25439 | 38051 ft | 428 kts | 298° |
| 2026-05-06 14:57 | 42.43391 | 26.18160 | 38033 ft | 428 kts | 298° |
| 2026-05-06 14:57 | 42.45931 | 26.10872 | 38034 ft | 427 kts | 298° |
| 2026-05-06 14:58 | 42.48462 | 26.03585 | 38022 ft | 427 kts | 298° |
| 2026-05-06 14:58 | 42.50996 | 25.96293 | 38030 ft | 427 kts | 298° |
| 2026-05-06 14:59 | 42.53511 | 25.89034 | 38033 ft | 427 kts | 298° |
| 2026-05-06 14:59 | 42.56031 | 25.81745 | 38031 ft | 427 kts | 298° |
| 2026-05-06 15:00 | 42.58547 | 25.74443 | 38018 ft | 427 kts | 297° |
| 2026-05-06 15:00 | 42.61056 | 25.67147 | 38034 ft | 426 kts | 297° |
| 2026-05-06 15:01 | 42.63552 | 25.59837 | 38028 ft | 426 kts | 297° |
| 2026-05-06 15:01 | 42.66041 | 25.52523 | 38018 ft | 426 kts | 297° |
| 2026-05-06 15:02 | 42.68534 | 25.45216 | 38006 ft | 426 kts | 297° |
| 2026-05-06 15:02 | 42.71005 | 25.37959 | 38011 ft | 426 kts | 297° |
| 2026-05-06 15:03 | 42.73490 | 25.30642 | 38021 ft | 426 kts | 297° |
| 2026-05-06 15:03 | 42.75969 | 25.23301 | 38024 ft | 427 kts | 297° |
| 2026-05-06 15:04 | 42.78445 | 25.15962 | 38030 ft | 427 kts | 297° |
| 2026-05-06 15:04 | 42.80916 | 25.08617 | 38034 ft | 427 kts | 297° |
| 2026-05-06 15:05 | 42.83378 | 25.01262 | 38038 ft | 426 kts | 297° |
| 2026-05-06 15:05 | 42.85836 | 24.93903 | 38019 ft | 427 kts | 297° |
| 2026-05-06 15:06 | 42.88295 | 24.86541 | 38010 ft | 427 kts | 296° |
| 2026-05-06 15:06 | 42.90746 | 24.79174 | 38024 ft | 427 kts | 296° |
| 2026-05-06 15:07 | 42.93192 | 24.71792 | 38015 ft | 427 kts | 296° |
| 2026-05-06 15:07 | 42.95636 | 24.64411 | 38011 ft | 427 kts | 296° |
| 2026-05-06 15:08 | 42.98074 | 24.57016 | 38001 ft | 427 kts | 296° |
| 2026-05-06 15:08 | 43.00509 | 24.49611 | 38003 ft | 427 kts | 296° |
| 2026-05-06 15:09 | 43.02937 | 24.42202 | 37999 ft | 427 kts | 296° |
| 2026-05-06 15:09 | 43.05360 | 24.34786 | 38007 ft | 427 kts | 296° |
| 2026-05-06 15:10 | 43.07781 | 24.27366 | 37994 ft | 427 kts | 295° |
| 2026-05-06 15:10 | 43.10404 | 24.20084 | 37997 ft | 426 kts | 303° |
| 2026-05-06 15:11 | 43.13030 | 24.14388 | 38003 ft | 426 kts | 303° |
| 2026-05-06 15:11 | 43.16710 | 24.06416 | 38004 ft | 426 kts | 303° |
| 2026-05-06 15:12 | 43.19858 | 23.99548 | 37991 ft | 426 kts | 302° |
| 2026-05-06 15:12 | 43.22486 | 23.93781 | 37986 ft | 426 kts | 302° |
| 2026-05-06 15:13 | 43.25623 | 23.86882 | 37990 ft | 426 kts | 302° |
| 2026-05-06 15:13 | 43.28290 | 23.79646 | 37984 ft | 428 kts | 288° |
| 2026-05-06 15:14 | 43.29296 | 23.71588 | 37984 ft | 430 kts | 279° |
| 2026-05-06 15:14 | 43.30017 | 23.63435 | 37983 ft | 430 kts | 279° |
| 2026-05-06 15:15 | 43.30736 | 23.55335 | 37985 ft | 430 kts | 279° |
| 2026-05-06 15:15 | 43.31461 | 23.47179 | 37989 ft | 430 kts | 279° |
| 2026-05-06 15:16 | 43.32175 | 23.39002 | 37980 ft | 430 kts | 278° |
| 2026-05-06 15:16 | 43.32881 | 23.30853 | 37984 ft | 430 kts | 278° |
| 2026-05-06 15:17 | 43.33580 | 23.22687 | 37988 ft | 430 kts | 278° |
| 2026-05-06 15:17 | 43.34279 | 23.14520 | 37990 ft | 430 kts | 278° |
| 2026-05-06 15:18 | 43.34976 | 23.06354 | 37989 ft | 430 kts | 278° |
| 2026-05-06 15:18 | 43.35663 | 22.98184 | 37990 ft | 430 kts | 278° |
| 2026-05-06 15:19 | 43.36344 | 22.90010 | 37992 ft | 430 kts | 277° |
| 2026-05-06 15:19 | 43.37009 | 22.81840 | 37992 ft | 430 kts | 277° |
| 2026-05-06 15:20 | 43.38154 | 22.73803 | 37993 ft | 428 kts | 289° |
| 2026-05-06 15:20 | 43.40064 | 22.66044 | 37988 ft | 428 kts | 289° |
| 2026-05-06 15:21 | 43.41949 | 22.58267 | 37992 ft | 429 kts | 289° |
| 2026-05-06 15:21 | 43.43825 | 22.50478 | 37985 ft | 429 kts | 288° |
| 2026-05-06 15:22 | 43.45687 | 22.42737 | 37977 ft | 429 kts | 288° |
| 2026-05-06 15:22 | 43.47562 | 22.34938 | 37977 ft | 428 kts | 288° |
| 2026-05-06 15:23 | 43.49425 | 22.27143 | 37968 ft | 429 kts | 288° |
| 2026-05-06 15:23 | 43.51278 | 22.19343 | 37964 ft | 429 kts | 288° |
| 2026-05-06 15:24 | 43.53134 | 22.11533 | 37965 ft | 429 kts | 288° |
| 2026-05-06 15:24 | 43.54980 | 22.03749 | 37962 ft | 429 kts | 288° |
| 2026-05-06 15:25 | 43.56833 | 21.95878 | 37958 ft | 429 kts | 288° |
| 2026-05-06 15:25 | 43.58661 | 21.88101 | 37956 ft | 429 kts | 288° |
| 2026-05-06 15:26 | 43.60497 | 21.80270 | 37958 ft | 429 kts | 288° |
| 2026-05-06 15:26 | 43.62327 | 21.72432 | 37953 ft | 429 kts | 288° |
| 2026-05-06 15:27 | 43.64151 | 21.64579 | 37953 ft | 429 kts | 288° |
| 2026-05-06 15:27 | 43.65968 | 21.56737 | 37957 ft | 429 kts | 287° |
| 2026-05-06 15:28 | 43.67780 | 21.48880 | 37947 ft | 429 kts | 287° |
| 2026-05-06 15:28 | 43.69588 | 21.41026 | 37947 ft | 429 kts | 287° |
| 2026-05-06 15:29 | 43.71392 | 21.33168 | 37945 ft | 429 kts | 287° |
| 2026-05-06 15:29 | 43.73190 | 21.25307 | 37945 ft | 429 kts | 287° |
| 2026-05-06 15:30 | 43.74977 | 21.17436 | 37938 ft | 429 kts | 287° |
| 2026-05-06 15:30 | 43.76762 | 21.09560 | 37944 ft | 429 kts | 287° |
| 2026-05-06 15:31 | 43.78539 | 21.01705 | 37945 ft | 430 kts | 287° |
| 2026-05-06 15:31 | 43.80315 | 20.93813 | 37958 ft | 430 kts | 286° |
| 2026-05-06 15:32 | 43.82978 | 20.81961 | 37955 ft | 429 kts | 286° |
| 2026-05-06 15:32 | 43.84734 | 20.74061 | 37953 ft | 429 kts | 286° |
| 2026-05-06 15:33 | 43.86488 | 20.66152 | 37952 ft | 429 kts | 286° |
| 2026-05-06 15:33 | 43.88245 | 20.58243 | 37963 ft | 430 kts | 286° |
| 2026-05-06 15:34 | 43.89996 | 20.50317 | 37973 ft | 430 kts | 286° |
| 2026-05-06 15:34 | 43.91679 | 20.42367 | 37969 ft | 430 kts | 284° |
| 2026-05-06 15:35 | 43.93146 | 20.34338 | 37968 ft | 429 kts | 283° |
| 2026-05-06 15:35 | 43.94546 | 20.26301 | 37959 ft | 429 kts | 282° |
| 2026-05-06 15:36 | 43.95980 | 20.18271 | 37951 ft | 429 kts | 283° |
| 2026-05-06 15:36 | 43.97438 | 20.10246 | 37945 ft | 428 kts | 283° |
| 2026-05-06 15:37 | 43.98895 | 20.02221 | 37946 ft | 428 kts | 283° |
| 2026-05-06 15:37 | 44.00335 | 19.94196 | 37950 ft | 428 kts | 282° |
| 2026-05-06 15:38 | 44.01768 | 19.86162 | 37952 ft | 428 kts | 282° |
| 2026-05-06 15:38 | 44.03191 | 19.78115 | 37948 ft | 428 kts | 282° |
| 2026-05-06 15:39 | 44.04616 | 19.70072 | 37941 ft | 428 kts | 282° |
| 2026-05-06 15:39 | 44.06035 | 19.62028 | 37948 ft | 429 kts | 282° |
| 2026-05-06 15:40 | 44.07445 | 19.53972 | 37953 ft | 429 kts | 282° |
| 2026-05-06 15:40 | 44.08855 | 19.45919 | 37961 ft | 429 kts | 282° |
| 2026-05-06 15:41 | 44.10260 | 19.37853 | 37961 ft | 429 kts | 282° |
| 2026-05-06 15:41 | 44.11646 | 19.29839 | 37955 ft | 429 kts | 282° |
| 2026-05-06 15:42 | 44.13035 | 19.21776 | 37959 ft | 429 kts | 281° |
| 2026-05-06 15:42 | 44.14423 | 19.13705 | 37963 ft | 429 kts | 281° |